Time;durP1;ratioP1;P1;durP2;ratioP2;P2;SDS_P1;SDS_P2;PMS_P1;PMS_P2;Temp;Humidity;BMP_temperature;BMP_pressure;BME280_temperature;BME280_humidity;BME280_pressure;Samples;Min_cycle;Max_cycle;Signal;HPM_P1;HPM_P2
2023/12/03 00:00:51;;;;;;;;;;;21.60;64.40;;;;;;5086542;28;19928;-47
2023/12/03 00:03:16;;;;;;;;;;;21.70;64.40;;;;;;5086561;28;19908;-49
2023/12/03 00:05:42;;;;;;;;;;;21.70;63.90;;;;;;5086023;28;20000;-48
2023/12/03 00:08:08;;;;;;;;;;;21.70;63.80;;;;;;5084780;28;19919;-48
2023/12/03 00:10:34;;;;;;;;;;;21.70;64.70;;;;;;5089798;28;19983;-48
2023/12/03 00:13:00;;;;;;;;;;;21.60;64.00;;;;;;5078201;28;20550;-47
2023/12/03 00:15:26;;;;;;;;;;;21.60;64.20;;;;;;5077465;28;19920;-49
2023/12/03 00:17:52;;;;;;;;;;;21.60;64.30;;;;;;5085221;28;19971;-48
2023/12/03 00:20:17;;;;;;;;;;;21.60;64.30;;;;;;5081965;28;19917;-48
2023/12/03 00:22:44;;;;;;;;;;;21.60;64.30;;;;;;5081282;28;19913;-50
2023/12/03 00:25:10;;;;;;;;;;;21.60;64.30;;;;;;5076407;28;19919;-49
2023/12/03 00:27:36;;;;;;;;;;;21.60;65.00;;;;;;5084481;28;19912;-49
2023/12/03 00:30:01;;;;;;;;;;;21.60;64.20;;;;;;5077532;28;19995;-48
2023/12/03 00:32:27;;;;;;;;;;;21.60;64.20;;;;;;5077678;28;20079;-48
2023/12/03 00:34:53;;;;;;;;;;;21.60;64.20;;;;;;5075308;28;19915;-48
2023/12/03 00:37:19;;;;;;;;;;;21.70;64.60;;;;;;5079699;28;20384;-48
2023/12/03 00:39:45;;;;;;;;;;;21.70;64.40;;;;;;5077041;28;20259;-49
2023/12/03 00:42:11;;;;;;;;;;;21.70;64.20;;;;;;5086327;28;20339;-50
2023/12/03 00:44:36;;;;;;;;;;;21.70;64.30;;;;;;5067438;28;19924;-49
2023/12/03 00:47:02;;;;;;;;;;;21.70;64.40;;;;;;5064921;28;19956;-47
2023/12/03 00:49:28;;;;;;;;;;;21.70;64.50;;;;;;5064930;28;19916;-49
2023/12/03 00:51:55;;;;;;;;;;;21.70;64.50;;;;;;5060567;28;19996;-47
2023/12/03 00:54:21;;;;;;;;;;;21.60;64.40;;;;;;5064658;28;20444;-52
2023/12/03 00:56:47;;;;;;;;;;;21.60;64.40;;;;;;5059811;28;19959;-49
2023/12/03 00:59:12;;;;;;;;;;;21.60;64.30;;;;;;5056164;28;19912;-48
2023/12/03 01:01:38;;;;;;;;;;;21.60;64.40;;;;;;5052036;28;19921;-48
2023/12/03 01:04:04;;;;;;;;;;;21.60;64.30;;;;;;5054817;28;19913;-47
2023/12/03 01:06:30;;;;;;;;;;;21.60;64.40;;;;;;5057324;28;20011;-48
2023/12/03 01:08:56;;;;;;;;;;;21.60;64.40;;;;;;5062849;28;19924;-50
2023/12/03 01:11:22;;;;;;;;;;;21.60;64.40;;;;;;5063251;28;19979;-50
2023/12/03 01:13:47;;;;;;;;;;;21.60;64.40;;;;;;5063102;28;19909;-50
2023/12/03 01:16:17;;;;;;;;;;;21.60;64.40;;;;;;5058754;28;19919;-52
2023/12/03 01:18:43;;;;;;;;;;;21.70;64.60;;;;;;5070309;28;19908;-48
2023/12/03 01:21:09;;;;;;;;;;;21.70;64.40;;;;;;5060000;28;19917;-47
2023/12/03 01:23:34;;;;;;;;;;;21.70;64.50;;;;;;5064329;28;19912;-48
2023/12/03 01:26:01;;;;;;;;;;;21.70;64.50;;;;;;5060953;28;19919;-51
2023/12/03 01:28:26;;;;;;;;;;;21.70;64.60;;;;;;5064557;28;19909;-52
2023/12/03 01:30:52;;;;;;;;;;;21.70;64.40;;;;;;5063251;28;19913;-48
2023/12/03 01:33:18;;;;;;;;;;;21.60;64.50;;;;;;5057616;28;19917;-48
2023/12/03 01:35:44;;;;;;;;;;;21.60;64.50;;;;;;5057042;28;19968;-53
2023/12/03 01:38:10;;;;;;;;;;;21.60;64.40;;;;;;5064112;28;19912;-51
2023/12/03 01:40:36;;;;;;;;;;;21.60;64.60;;;;;;5062704;28;19928;-48
2023/12/03 01:43:02;;;;;;;;;;;21.60;64.60;;;;;;5061594;28;19909;-52
2023/12/03 01:45:28;;;;;;;;;;;21.60;64.50;;;;;;5079353;28;19984;-50
2023/12/03 01:47:55;;;;;;;;;;;21.60;64.50;;;;;;5081556;28;19919;-50
2023/12/03 01:50:22;;;;;;;;;;;21.60;64.50;;;;;;5079357;28;19944;-51
2023/12/03 01:52:48;;;;;;;;;;;21.60;64.40;;;;;;5079042;28;19928;-52
2023/12/03 01:55:15;;;;;;;;;;;21.60;64.40;;;;;;5099373;28;19908;-49
2023/12/03 01:57:42;;;;;;;;;;;21.60;64.40;;;;;;5080554;28;19908;-49
2023/12/03 02:00:09;;;;;;;;;;;21.70;64.60;;;;;;5082064;28;19966;-47
2023/12/03 02:02:36;;;;;;;;;;;21.70;64.40;;;;;;5079230;28;19933;-49
2023/12/03 02:05:02;;;;;;;;;;;21.70;64.50;;;;;;5083184;28;19942;-51
2023/12/03 02:07:28;;;;;;;;;;;21.70;64.50;;;;;;5083891;28;19939;-52
2023/12/03 02:09:56;;;;;;;;;;;21.70;64.50;;;;;;5084536;28;19938;-52
2023/12/03 02:12:22;;;;;;;;;;;21.70;64.40;;;;;;5078594;28;19965;-53
2023/12/03 02:14:49;;;;;;;;;;;21.70;64.60;;;;;;5082306;28;19912;-51
2023/12/03 02:17:15;;;;;;;;;;;21.60;64.50;;;;;;5083590;28;19908;-55
2023/12/03 02:19:41;;;;;;;;;;;21.60;64.40;;;;;;5083127;28;19975;-49
2023/12/03 02:22:07;;;;;;;;;;;21.60;64.40;;;;;;5082620;28;19923;-51
2023/12/03 02:24:33;;;;;;;;;;;21.60;64.50;;;;;;5083628;28;20003;-52
2023/12/03 02:27:00;;;;;;;;;;;21.60;64.50;;;;;;5077299;28;19919;-52
2023/12/03 02:29:26;;;;;;;;;;;21.60;64.50;;;;;;5082930;28;19955;-49
2023/12/03 02:31:53;;;;;;;;;;;21.60;64.40;;;;;;5083158;28;19984;-53
2023/12/03 02:34:19;;;;;;;;;;;21.60;64.50;;;;;;5083111;28;19958;-51
2023/12/03 02:36:45;;;;;;;;;;;21.60;64.50;;;;;;5077238;28;19915;-51
2023/12/03 02:39:11;;;;;;;;;;;21.70;64.60;;;;;;5081740;28;19913;-53
2023/12/03 02:41:37;;;;;;;;;;;21.70;64.50;;;;;;5079619;28;19935;-56
2023/12/03 02:44:03;;;;;;;;;;;21.70;64.40;;;;;;5081895;28;19938;-42
2023/12/03 02:46:29;;;;;;;;;;;21.70;64.50;;;;;;5081930;28;19909;-50
2023/12/03 02:48:55;;;;;;;;;;;21.70;64.50;;;;;;5079891;28;19912;-49
2023/12/03 02:51:21;;;;;;;;;;;21.70;73.10;;;;;;5082033;28;19912;-38
2023/12/03 02:53:47;;;;;;;;;;;21.50;68.20;;;;;;5079984;28;19972;-38
2023/12/03 02:56:13;;;;;;;;;;;21.70;64.50;;;;;;5075556;28;19916;-38
2023/12/03 02:58:39;;;;;;;;;;;21.70;64.50;;;;;;5072512;28;20011;-38
2023/12/03 03:01:06;;;;;;;;;;;21.80;64.40;;;;;;5080371;28;19924;-38
2023/12/03 03:03:32;;;;;;;;;;;21.80;64.40;;;;;;5080135;28;19912;-38
2023/12/03 03:05:58;;;;;;;;;;;21.70;64.20;;;;;;5078052;28;19918;-38
2023/12/03 03:08:23;;;;;;;;;;;21.80;65.10;;;;;;5083058;28;20395;-38
2023/12/03 03:10:49;;;;;;;;;;;21.80;64.40;;;;;;5075989;28;19936;-38
2023/12/03 03:13:15;;;;;;;;;;;21.80;64.40;;;;;;5081935;28;19918;-38
2023/12/03 03:15:41;;;;;;;;;;;21.80;64.20;;;;;;5076209;28;19909;-38
2023/12/03 03:18:07;;;;;;;;;;;21.80;64.20;;;;;;5074532;28;19912;-38
2023/12/03 03:20:34;;;;;;;;;;;21.80;64.60;;;;;;5079605;28;20497;-38
2023/12/03 03:22:59;;;;;;;;;;;21.80;64.30;;;;;;5078769;28;19975;-38
2023/12/03 03:25:25;;;;;;;;;;;21.80;64.30;;;;;;5074449;28;19965;-38
2023/12/03 03:27:51;;;;;;;;;;;21.70;64.40;;;;;;5073416;28;19922;-38
2023/12/03 03:30:17;;;;;;;;;;;21.70;64.40;;;;;;5076163;28;20357;-40
2023/12/03 03:32:43;;;;;;;;;;;21.70;64.50;;;;;;5075189;28;21075;-39
2023/12/03 03:35:09;;;;;;;;;;;21.80;64.60;;;;;;5076741;28;19916;-40
2023/12/03 03:37:35;;;;;;;;;;;21.70;64.30;;;;;;5079673;28;19912;-38
2023/12/03 03:40:01;;;;;;;;;;;21.80;64.20;;;;;;5077446;28;19923;-39
2023/12/03 03:42:27;;;;;;;;;;;21.80;64.00;;;;;;5078714;28;19909;-39
2023/12/03 03:44:53;;;;;;;;;;;21.80;64.40;;;;;;5018482;28;1666798;-39
2023/12/03 03:47:18;;;;;;;;;;;21.80;64.20;;;;;;5077485;28;20360;-39
2023/12/03 03:49:44;;;;;;;;;;;21.80;64.20;;;;;;5075769;28;19913;-39
2023/12/03 03:52:10;;;;;;;;;;;21.80;64.30;;;;;;5074146;28;19968;-39
2023/12/03 03:54:40;;;;;;;;;;;21.80;64.70;;;;;;5077761;28;20038;-39
2023/12/03 03:57:06;;;;;;;;;;;21.80;64.60;;;;;;5076317;28;19912;-39
2023/12/03 03:59:32;;;;;;;;;;;21.90;64.60;;;;;;5077064;28;19912;-39
2023/12/03 04:01:58;;;;;;;;;;;21.90;64.80;;;;;;5073091;28;19974;-40
2023/12/03 04:04:23;;;;;;;;;;;21.90;64.80;;;;;;5073726;28;19920;-39
2023/12/03 04:06:50;;;;;;;;;;;21.90;64.60;;;;;;5074578;28;19913;-39
2023/12/03 04:09:15;;;;;;;;;;;21.90;64.60;;;;;;5072214;28;19935;-39
2023/12/03 04:11:41;;;;;;;;;;;21.90;64.50;;;;;;5070769;28;19909;-39
2023/12/03 04:14:08;;;;;;;;;;;21.90;64.50;;;;;;5076764;28;19916;-39
2023/12/03 04:16:34;;;;;;;;;;;21.90;64.50;;;;;;5077875;28;19919;-38
2023/12/03 04:19:00;;;;;;;;;;;21.90;64.60;;;;;;5074310;28;20468;-39
2023/12/03 04:21:26;;;;;;;;;;;21.90;64.70;;;;;;5073886;28;19995;-39
2023/12/03 04:23:51;;;;;;;;;;;21.90;64.60;;;;;;5075449;28;20070;-38
2023/12/03 04:26:17;;;;;;;;;;;21.90;64.80;;;;;;5071902;28;19983;-40
2023/12/03 04:28:43;;;;;;;;;;;21.90;64.80;;;;;;5077756;28;19912;-38
2023/12/03 04:31:16;;;;;;;;;;;21.90;64.70;;;;;;5075106;28;19915;-38
2023/12/03 04:33:42;;;;;;;;;;;21.90;64.50;;;;;;5078936;28;19908;-38
2023/12/03 04:36:08;;;;;;;;;;;21.80;64.50;;;;;;5077245;28;19979;-38
2023/12/03 04:38:35;;;;;;;;;;;21.90;64.40;;;;;;5077922;28;19916;-38
2023/12/03 04:41:01;;;;;;;;;;;21.90;64.70;;;;;;5074147;28;19921;-38
2023/12/03 04:43:27;;;;;;;;;;;21.80;64.50;;;;;;5077107;28;19915;-39
2023/12/03 04:45:53;;;;;;;;;;;21.90;64.80;;;;;;5076882;28;19959;-38
2023/12/03 04:48:19;;;;;;;;;;;21.90;64.70;;;;;;5077670;28;19942;-39
2023/12/03 04:50:45;;;;;;;;;;;21.90;64.80;;;;;;5074324;28;19913;-39
2023/12/03 04:53:10;;;;;;;;;;;21.90;65.40;;;;;;5076515;28;19912;-40
2023/12/03 04:55:36;;;;;;;;;;;21.90;64.70;;;;;;5082852;28;19990;-39
2023/12/03 04:58:02;;;;;;;;;;;21.90;64.80;;;;;;5081809;28;19923;-39
2023/12/03 05:00:28;;;;;;;;;;;22.00;64.90;;;;;;5079898;28;19924;-38
2023/12/03 05:02:54;;;;;;;;;;;22.00;64.90;;;;;;5080816;28;19915;-39
2023/12/03 05:05:20;;;;;;;;;;;22.00;64.80;;;;;;5080870;28;19916;-38
2023/12/03 05:07:46;;;;;;;;;;;22.00;64.80;;;;;;5075293;28;19986;-38
2023/12/03 05:10:13;;;;;;;;;;;22.00;64.60;;;;;;5081172;28;20384;-38
2023/12/03 05:12:38;;;;;;;;;;;22.00;64.80;;;;;;5077303;28;19938;-38
2023/12/03 05:15:04;;;;;;;;;;;22.00;64.40;;;;;;5081550;28;19919;-38
2023/12/03 05:17:30;;;;;;;;;;;22.00;64.60;;;;;;5060571;28;19912;-38
2023/12/03 05:19:56;;;;;;;;;;;22.00;64.50;;;;;;5079901;28;19908;-38
2023/12/03 05:22:22;;;;;;;;;;;22.00;64.70;;;;;;5079987;28;19916;-37
2023/12/03 05:24:48;;;;;;;;;;;22.00;64.70;;;;;;5079196;28;20301;-37
2023/12/03 05:27:14;;;;;;;;;;;22.00;64.10;;;;;;5080441;28;19991;-38
2023/12/03 05:29:41;;;;;;;;;;;22.00;64.60;;;;;;5079160;28;19946;-39
2023/12/03 05:32:07;;;;;;;;;;;22.00;64.50;;;;;;5075588;28;19913;-38
2023/12/03 05:34:33;;;;;;;;;;;21.90;64.40;;;;;;5082374;28;19916;-39
2023/12/03 05:36:58;;;;;;;;;;;22.00;64.60;;;;;;5076785;28;19984;-39
2023/12/03 05:39:24;;;;;;;;;;;21.90;64.50;;;;;;5074420;28;19909;-39
2023/12/03 05:41:50;;;;;;;;;;;21.90;64.70;;;;;;5074376;28;20370;-39
2023/12/03 05:44:16;;;;;;;;;;;21.90;64.70;;;;;;5076478;28;19928;-38
2023/12/03 05:46:42;;;;;;;;;;;21.90;64.50;;;;;;5080820;28;19916;-39
2023/12/03 05:49:08;;;;;;;;;;;21.90;64.80;;;;;;5078114;28;19912;-39
2023/12/03 05:51:34;;;;;;;;;;;22.00;65.00;;;;;;5079244;28;19913;-39
2023/12/03 05:54:00;;;;;;;;;;;22.00;64.40;;;;;;5070082;28;19912;-39
2023/12/03 05:56:26;;;;;;;;;;;22.00;64.80;;;;;;5078467;28;19958;-39
2023/12/03 05:58:52;;;;;;;;;;;22.00;64.80;;;;;;5079139;28;19917;-39
2023/12/03 06:01:22;;;;;;;;;;;22.10;65.70;;;;;;5076244;28;19920;-45
2023/12/03 06:03:48;;;;;;;;;;;22.00;64.80;;;;;;5082982;28;19908;-39
2023/12/03 06:06:14;;;;;;;;;;;22.10;64.80;;;;;;5078340;28;20602;-39
2023/12/03 06:08:40;;;;;;;;;;;22.00;64.70;;;;;;5082004;28;19963;-39
2023/12/03 06:11:06;;;;;;;;;;;22.00;64.50;;;;;;5076029;28;19919;-39
2023/12/03 06:13:32;;;;;;;;;;;22.10;65.40;;;;;;5075800;28;19912;-38
2023/12/03 06:15:58;;;;;;;;;;;22.00;65.40;;;;;;5078131;28;20015;-39
2023/12/03 06:18:24;;;;;;;;;;;22.00;64.50;;;;;;5079950;28;19919;-39
2023/12/03 06:20:49;;;;;;;;;;;22.00;64.60;;;;;;5076793;28;19974;-39
2023/12/03 06:23:15;;;;;;;;;;;21.60;64.50;;;;;;5082160;28;19912;-39
2023/12/03 06:25:41;;;;;;;;;;;22.10;64.60;;;;;;5077856;28;19914;-39
2023/12/03 06:28:07;;;;;;;;;;;22.00;64.30;;;;;;5080552;28;19912;-38
2023/12/03 06:30:33;;;;;;;;;;;22.10;64.70;;;;;;5081972;28;19908;-38
2023/12/03 06:32:59;;;;;;;;;;;22.10;64.90;;;;;;5076860;28;19917;-38
2023/12/03 06:35:24;;;;;;;;;;;22.00;64.80;;;;;;5083052;28;19943;-39
2023/12/03 06:37:50;;;;;;;;;;;22.10;64.80;;;;;;5069944;28;19912;-39
2023/12/03 06:40:16;;;;;;;;;;;22.10;64.90;;;;;;5083263;28;19916;-39
2023/12/03 06:42:42;;;;;;;;;;;22.10;64.90;;;;;;5081493;28;19939;-39
2023/12/03 06:45:08;;;;;;;;;;;22.10;64.90;;;;;;5074791;28;19924;-38
2023/12/03 06:47:34;;;;;;;;;;;22.10;64.80;;;;;;5062083;28;19935;-38
2023/12/03 06:50:00;;;;;;;;;;;22.10;65.00;;;;;;5077199;28;19919;-39
2023/12/03 06:52:26;;;;;;;;;;;22.10;64.60;;;;;;5078828;28;19912;-39
2023/12/03 06:54:51;;;;;;;;;;;22.10;64.50;;;;;;5080477;28;19947;-39
2023/12/03 06:57:17;;;;;;;;;;;22.10;65.00;;;;;;5080595;28;19908;-38
2023/12/03 06:59:43;;;;;;;;;;;22.10;64.90;;;;;;5073630;28;20360;-39
2023/12/03 07:02:09;;;;;;;;;;;22.10;65.00;;;;;;5072722;28;19956;-38
2023/12/03 07:04:35;;;;;;;;;;;22.20;65.00;;;;;;5078054;28;19908;-38
2023/12/03 07:07:01;;;;;;;;;;;22.20;64.90;;;;;;5079802;28;19924;-39
2023/12/03 07:09:27;;;;;;;;;;;22.20;65.10;;;;;;5077995;28;19908;-38
2023/12/03 07:11:53;;;;;;;;;;;22.10;64.80;;;;;;5076463;28;20285;-38
2023/12/03 07:14:18;;;;;;;;;;;22.10;64.80;;;;;;5074371;28;19924;-39
2023/12/03 07:16:44;;;;;;;;;;;22.10;64.80;;;;;;5076913;28;19943;-38
2023/12/03 07:19:10;;;;;;;;;;;22.10;64.70;;;;;;5079166;28;19913;-38
2023/12/03 07:21:36;;;;;;;;;;;22.10;64.60;;;;;;5077113;28;19943;-38
2023/12/03 07:24:02;;;;;;;;;;;22.10;65.00;;;;;;5073646;28;19916;-38
2023/12/03 07:26:28;;;;;;;;;;;22.10;64.90;;;;;;5079053;28;19912;-38
2023/12/03 07:28:54;;;;;;;;;;;22.10;65.10;;;;;;5075802;28;19919;-39
2023/12/03 07:31:20;;;;;;;;;;;22.10;65.00;;;;;;5080320;28;19920;-38
2023/12/03 07:33:45;;;;;;;;;;;22.10;64.50;;;;;;5079067;28;19911;-39
2023/12/03 07:36:11;;;;;;;;;;;22.10;64.70;;;;;;5075956;28;19920;-38
2023/12/03 07:38:38;;;;;;;;;;;22.10;65.00;;;;;;5074582;28;19919;-38
2023/12/03 07:41:08;;;;;;;;;;;22.10;64.90;;;;;;5074847;28;19920;-38
2023/12/03 07:43:35;;;;;;;;;;;22.10;65.10;;;;;;5073228;28;19919;-39
2023/12/03 07:46:00;;;;;;;;;;;22.10;64.70;;;;;;5077412;28;19984;-39
2023/12/03 07:48:26;;;;;;;;;;;22.10;65.40;;;;;;5081818;28;19915;-38
2023/12/03 07:50:52;;;;;;;;;;;22.10;65.40;;;;;;5072438;28;20007;-39
2023/12/03 07:53:18;;;;;;;;;;;22.10;65.10;;;;;;5076166;28;19916;-38
2023/12/03 07:55:44;;;;;;;;;;;22.10;65.50;;;;;;5079813;28;19919;-38
2023/12/03 07:58:10;;;;;;;;;;;22.10;65.40;;;;;;5080372;28;19968;-38
2023/12/03 08:00:36;;;;;;;;;;;22.10;65.30;;;;;;5074369;28;19927;-38
2023/12/03 08:03:02;;;;;;;;;;;22.10;65.30;;;;;;5076490;28;19908;-38
2023/12/03 08:05:28;;;;;;;;;;;22.10;65.30;;;;;;5081223;28;19955;-38
2023/12/03 08:07:54;;;;;;;;;;;22.10;65.20;;;;;;5079964;28;19912;-38
2023/12/03 08:10:19;;;;;;;;;;;22.20;65.10;;;;;;5080832;28;19943;-38
2023/12/03 08:12:45;;;;;;;;;;;22.20;65.40;;;;;;5080029;28;19919;-38
2023/12/03 08:15:11;;;;;;;;;;;22.20;65.30;;;;;;5082796;28;19908;-38
2023/12/03 08:17:37;;;;;;;;;;;22.20;65.20;;;;;;5081180;28;19912;-38
2023/12/03 08:20:05;;;;;;;;;;;22.20;65.30;;;;;;5084347;28;19908;-38
2023/12/03 08:22:31;;;;;;;;;;;22.20;65.10;;;;;;5085043;28;19923;-38
2023/12/03 08:24:57;;;;;;;;;;;22.20;65.10;;;;;;5084076;28;19909;-38
2023/12/03 08:27:23;;;;;;;;;;;22.20;65.20;;;;;;5084375;28;19915;-38
2023/12/03 08:29:49;;;;;;;;;;;22.20;64.90;;;;;;5085534;28;19992;-38
2023/12/03 08:32:15;;;;;;;;;;;22.20;65.00;;;;;;5086438;28;19915;-38
2023/12/03 08:34:40;;;;;;;;;;;22.20;65.10;;;;;;5078948;28;19919;-39
2023/12/03 08:37:06;;;;;;;;;;;22.20;65.30;;;;;;5077431;28;19976;-38
2023/12/03 08:39:32;;;;;;;;;;;22.20;65.70;;;;;;5084963;28;19908;-38
2023/12/03 08:41:58;;;;;;;;;;;22.20;65.70;;;;;;5085040;28;19981;-38
2023/12/03 08:44:25;;;;;;;;;;;22.20;65.00;;;;;;5085589;28;19921;-39
2023/12/03 08:46:51;;;;;;;;;;;22.20;65.70;;;;;;5062697;28;19908;-38
2023/12/03 08:49:17;;;;;;;;;;;22.20;65.60;;;;;;5078560;28;19936;-38
2023/12/03 08:51:43;;;;;;;;;;;22.20;65.90;;;;;;5081863;28;19919;-38
2023/12/03 08:54:09;;;;;;;;;;;22.10;65.70;;;;;;5080527;28;19912;-38
2023/12/03 08:56:35;;;;;;;;;;;22.20;65.50;;;;;;5085142;28;19909;-38
2023/12/03 08:59:01;;;;;;;;;;;22.20;65.90;;;;;;5083659;28;19912;-38
2023/12/03 09:01:27;;;;;;;;;;;22.10;65.90;;;;;;5084852;28;19917;-38
2023/12/03 09:03:52;;;;;;;;;;;22.10;65.80;;;;;;5080999;28;19917;-39
2023/12/03 09:06:19;;;;;;;;;;;22.10;65.80;;;;;;5079091;28;20645;-39
2023/12/03 09:08:45;;;;;;;;;;;22.10;65.50;;;;;;5080682;28;19962;-38
2023/12/03 09:11:11;;;;;;;;;;;22.10;65.90;;;;;;5077554;28;19919;-39
2023/12/03 09:13:37;;;;;;;;;;;22.10;65.90;;;;;;5083643;28;19912;-38
2023/12/03 09:16:03;;;;;;;;;;;22.10;66.00;;;;;;5083187;28;19909;-38
2023/12/03 09:18:29;;;;;;;;;;;22.10;65.80;;;;;;5084204;28;19969;-38
2023/12/03 09:20:55;;;;;;;;;;;22.10;66.00;;;;;;5083950;28;20636;-38
2023/12/03 09:23:21;;;;;;;;;;;22.10;66.00;;;;;;5084779;28;19912;-38
2023/12/03 09:25:47;;;;;;;;;;;22.10;65.80;;;;;;5076804;28;19954;-38
2023/12/03 09:28:16;;;;;;;;;;;22.10;65.50;;;;;;5084771;28;19919;-38
2023/12/03 09:30:42;;;;;;;;;;;22.10;65.90;;;;;;5084193;28;19916;-38
2023/12/03 09:33:08;;;;;;;;;;;22.10;65.50;;;;;;5084194;28;20331;-38
2023/12/03 09:35:34;;;;;;;;;;;22.10;65.70;;;;;;5078194;28;20450;-38
2023/12/03 09:38:00;;;;;;;;;;;22.20;65.60;;;;;;5083888;28;19912;-38
2023/12/03 09:40:26;;;;;;;;;;;22.10;65.50;;;;;;5081704;28;19919;-37
2023/12/03 09:42:52;;;;;;;;;;;22.20;65.60;;;;;;5075177;28;19916;-39
2023/12/03 09:45:19;;;;;;;;;;;22.10;65.40;;;;;;5083642;28;19916;-39
2023/12/03 09:47:48;;;;;;;;;;;22.10;65.70;;;;;;5075366;28;19999;-37
2023/12/03 09:50:14;;;;;;;;;;;22.10;65.00;;;;;;5084475;28;19962;-39
2023/12/03 09:52:40;;;;;;;;;;;22.10;65.50;;;;;;5079753;28;19976;-38
2023/12/03 09:55:06;;;;;;;;;;;22.10;65.60;;;;;;5079432;28;19927;-38
2023/12/03 09:57:32;;;;;;;;;;;22.10;65.60;;;;;;5097080;28;19999;-38
2023/12/03 10:00:02;;;;;;;;;;;22.10;65.70;;;;;;5060138;28;19916;-38
2023/12/03 10:02:29;;;;;;;;;;;22.10;65.70;;;;;;5066147;28;19921;-38
2023/12/03 10:04:56;;;;;;;;;;;22.10;65.90;;;;;;5083598;28;19908;-38
2023/12/03 10:07:22;;;;;;;;;;;22.10;65.90;;;;;;5083550;28;19912;-38
2023/12/03 10:09:48;;;;;;;;;;;22.10;65.80;;;;;;5063721;28;20353;-38
2023/12/03 10:12:14;;;;;;;;;;;22.10;65.90;;;;;;5089776;28;19908;-38
2023/12/03 10:14:41;;;;;;;;;;;22.10;65.90;;;;;;5055164;28;19919;-38
2023/12/03 10:17:08;;;;;;;;;;;22.10;65.90;;;;;;5077807;28;19980;-38
2023/12/03 10:19:34;;;;;;;;;;;22.00;65.90;;;;;;5087156;28;19976;-38
2023/12/03 10:22:00;;;;;;;;;;;22.00;66.00;;;;;;5082580;28;19927;-38
2023/12/03 10:24:26;;;;;;;;;;;22.00;66.00;;;;;;5083822;28;19912;-38
2023/12/03 10:26:52;;;;;;;;;;;22.00;66.00;;;;;;5082594;28;20349;-40
2023/12/03 10:29:23;;;;;;;;;;;22.00;66.10;;;;;;5080121;28;19912;-38
2023/12/03 10:31:53;;;;;;;;;;;22.00;66.10;;;;;;5075588;28;19924;-38
2023/12/03 10:34:21;;;;;;;;;;;22.00;66.10;;;;;;5076918;28;19916;-38
2023/12/03 10:36:48;;;;;;;;;;;22.00;66.00;;;;;;5074303;28;19912;-38
2023/12/03 10:39:17;;;;;;;;;;;22.00;66.10;;;;;;5074134;28;19908;-38
2023/12/03 10:41:46;;;;;;;;;;;22.00;66.10;;;;;;5078900;28;19965;-38
2023/12/03 10:44:19;;;;;;;;;;;22.00;66.10;;;;;;5076374;28;19916;-38
2023/12/03 10:46:45;;;;;;;;;;;22.00;66.10;;;;;;5079270;28;19919;-39
2023/12/03 10:49:12;;;;;;;;;;;22.00;66.10;;;;;;5086877;28;20060;-39
2023/12/03 10:51:41;;;;;;;;;;;22.00;66.30;;;;;;5081002;28;19915;-39
2023/12/03 10:54:07;;;;;;;;;;;22.00;66.40;;;;;;5079566;28;20293;-39
2023/12/03 10:56:34;;;;;;;;;;;22.00;66.10;;;;;;5074816;28;19920;-38
2023/12/03 10:59:04;;;;;;;;;;;22.00;66.40;;;;;;5080423;28;19912;-38
2023/12/03 11:01:30;;;;;;;;;;;22.00;66.60;;;;;;5086267;28;19948;-39
2023/12/03 11:03:56;;;;;;;;;;;22.00;66.50;;;;;;5096712;28;19916;-39
2023/12/03 11:06:23;;;;;;;;;;;22.00;66.50;;;;;;5081025;28;19920;-39
2023/12/03 11:08:51;;;;;;;;;;;22.00;66.60;;;;;;5065997;28;20422;-39
2023/12/03 11:11:18;;;;;;;;;;;22.00;66.50;;;;;;5074299;28;19920;-39
2023/12/03 11:13:44;;;;;;;;;;;22.00;66.60;;;;;;5066519;28;19919;-39
2023/12/03 11:16:11;;;;;;;;;;;21.90;66.50;;;;;;5078469;28;20015;-39
2023/12/03 11:18:38;;;;;;;;;;;21.90;66.50;;;;;;5064260;28;19913;-38
2023/12/03 11:21:27;;;;;;;;;;;22.00;66.10;;;;;;5092234;28;19920;-39
2023/12/03 11:24:02;;;;;;;;;;;22.00;66.10;;;;;;5067938;28;19916;-38
2023/12/03 11:26:28;;;;;;;;;;;22.00;66.10;;;;;;5080474;28;19912;-38
2023/12/03 11:28:54;;;;;;;;;;;22.00;66.30;;;;;;5074389;28;19938;-39
2023/12/03 11:31:20;;;;;;;;;;;21.60;66.50;;;;;;5079366;28;19939;-39
2023/12/03 11:33:51;;;;;;;;;;;22.00;66.30;;;;;;5076671;28;20249;-38
2023/12/03 11:36:17;;;;;;;;;;;22.00;66.40;;;;;;5070221;28;19909;-39
2023/12/03 11:38:43;;;;;;;;;;;22.00;66.50;;;;;;5076380;28;19912;-38
2023/12/03 11:41:09;;;;;;;;;;;22.00;66.30;;;;;;5074411;28;20056;-38
2023/12/03 11:43:35;;;;;;;;;;;22.00;66.50;;;;;;5075663;28;19912;-40
2023/12/03 11:46:01;;;;;;;;;;;22.00;66.50;;;;;;5057924;28;19960;-39
2023/12/03 11:48:27;;;;;;;;;;;22.00;66.50;;;;;;5060308;28;19909;-38
2023/12/03 11:50:54;;;;;;;;;;;22.00;66.50;;;;;;5060544;28;19917;-38
2023/12/03 11:53:24;;;;;;;;;;;22.00;66.40;;;;;;5050505;28;19909;-38
2023/12/03 11:55:51;;;;;;;;;;;22.00;66.50;;;;;;5079398;28;19913;-38
2023/12/03 11:58:17;;;;;;;;;;;22.00;66.50;;;;;;5063926;28;19972;-39
2023/12/03 12:00:45;;;;;;;;;;;22.00;66.50;;;;;;5059255;28;20342;-39
2023/12/03 12:03:11;;;;;;;;;;;22.00;66.50;;;;;;5057741;28;19913;-39
2023/12/03 12:05:44;;;;;;;;;;;21.90;66.60;;;;;;5061094;28;19947;-38
2023/12/03 12:08:10;;;;;;;;;;;22.00;66.60;;;;;;5060315;28;19917;-39
2023/12/03 12:10:36;;;;;;;;;;;22.00;66.70;;;;;;5064509;28;19913;-39
2023/12/03 12:13:02;;;;;;;;;;;22.00;66.70;;;;;;5062724;28;19959;-39
2023/12/03 12:15:28;;;;;;;;;;;21.80;66.50;;;;;;5069174;28;19913;-39
2023/12/03 12:17:54;;;;;;;;;;;21.90;66.70;;;;;;5064186;28;19928;-39
2023/12/03 12:20:26;;;;;;;;;;;21.90;66.70;;;;;;5057390;28;19913;-39
2023/12/03 12:22:52;;;;;;;;;;;21.90;66.70;;;;;;5063616;28;19913;-38
2023/12/03 12:25:18;;;;;;;;;;;21.90;66.70;;;;;;5056615;28;19909;-39
2023/12/03 12:27:45;;;;;;;;;;;21.90;66.70;;;;;;5064346;28;19909;-38
2023/12/03 12:30:15;;;;;;;;;;;21.90;66.80;;;;;;5064428;28;20042;-38
2023/12/03 12:32:41;;;;;;;;;;;21.90;66.80;;;;;;5057898;28;19915;-37
2023/12/03 12:35:08;;;;;;;;;;;21.90;67.50;;;;;;5057896;28;19912;-35
2023/12/03 12:37:34;;;;;;;;;;;21.90;66.70;;;;;;5060443;28;19913;-35
2023/12/03 12:40:07;;;;;;;;;;;21.90;66.60;;;;;;5060555;28;19963;-39
2023/12/03 12:42:33;;;;;;;;;;;21.90;66.70;;;;;;5060946;28;19966;-39
2023/12/03 12:44:59;;;;;;;;;;;21.90;66.70;;;;;;5084558;28;19920;-38
2023/12/03 12:47:37;;;;;;;;;;;21.90;66.50;;;;;;5086275;28;19912;-37
2023/12/03 12:50:04;;;;;;;;;;;22.00;66.70;;;;;;5086250;28;19985;-37
2023/12/03 12:52:32;;;;;;;;;;;22.00;66.90;;;;;;5084980;28;19909;-38
2023/12/03 12:54:59;;;;;;;;;;;22.00;66.80;;;;;;5078207;28;20015;-39
2023/12/03 12:57:25;;;;;;;;;;;22.00;66.80;;;;;;5081038;28;19912;-40
2023/12/03 12:59:51;;;;;;;;;;;22.00;66.80;;;;;;5081082;28;19913;-40
2023/12/03 13:02:21;;;;;;;;;;;22.00;67.00;;;;;;5083820;28;20347;-40
2023/12/03 13:04:47;;;;;;;;;;;22.00;66.70;;;;;;5082847;28;19919;-39
2023/12/03 13:07:12;;;;;;;;;;;22.00;66.90;;;;;;5083671;28;20003;-39
2023/12/03 13:09:38;;;;;;;;;;;22.00;67.00;;;;;;5081587;28;19920;-39
2023/12/03 13:12:04;;;;;;;;;;;22.00;67.10;;;;;;5082272;28;19912;-39
2023/12/03 13:14:32;;;;;;;;;;;22.00;67.10;;;;;;5080321;28;19938;-39
2023/12/03 13:17:01;;;;;;;;;;;22.00;67.10;;;;;;5083449;28;19919;-39
2023/12/03 13:19:30;;;;;;;;;;;22.00;67.10;;;;;;5081603;28;19909;-39
2023/12/03 13:21:57;;;;;;;;;;;22.00;67.20;;;;;;5083820;28;20862;-39
2023/12/03 13:24:23;;;;;;;;;;;22.00;67.20;;;;;;5084259;28;19912;-39
2023/12/03 13:26:50;;;;;;;;;;;21.90;67.20;;;;;;5080111;28;19923;-39
2023/12/03 13:29:16;;;;;;;;;;;21.90;67.10;;;;;;5083710;28;20415;-39
2023/12/03 13:31:42;;;;;;;;;;;21.90;67.10;;;;;;5079046;28;19909;-39
2023/12/03 13:34:10;;;;;;;;;;;21.90;67.10;;;;;;5078671;28;19919;-39
2023/12/03 13:36:36;;;;;;;;;;;21.90;66.90;;;;;;5075873;28;19913;-38
2023/12/03 13:39:03;;;;;;;;;;;21.90;67.10;;;;;;5075383;28;19908;-38
2023/12/03 13:41:30;;;;;;;;;;;21.90;67.10;;;;;;5081800;28;19951;-38
2023/12/03 13:43:56;;;;;;;;;;;21.90;67.10;;;;;;5073147;28;19913;-39
2023/12/03 13:46:23;;;;;;;;;;;21.90;67.00;;;;;;5080331;28;19912;-39
2023/12/03 13:48:52;;;;;;;;;;;21.90;67.10;;;;;;5082889;28;20345;-39
2023/12/03 13:51:19;;;;;;;;;;;21.90;67.20;;;;;;5077752;28;19951;-39
2023/12/03 13:53:47;;;;;;;;;;;21.90;67.20;;;;;;5050355;28;19920;-39
2023/12/03 13:56:13;;;;;;;;;;;21.90;67.10;;;;;;5074616;28;19923;-39
2023/12/03 13:58:39;;;;;;;;;;;21.90;67.20;;;;;;5078835;28;19923;-39
2023/12/03 14:01:06;;;;;;;;;;;23.10;67.90;;;;;;5082996;28;19924;-39
2023/12/03 14:03:31;;;;;;;;;;;21.90;67.20;;;;;;5077565;28;19981;-38
2023/12/03 14:05:58;;;;;;;;;;;21.90;67.10;;;;;;5085765;28;19908;-38
2023/12/03 14:08:24;;;;;;;;;;;21.90;67.00;;;;;;5080504;28;19938;-38
2023/12/03 14:10:50;;;;;;;;;;;21.90;66.80;;;;;;5062106;28;19924;-38